Time;durP1;ratioP1;P1;durP2;ratioP2;P2;SDS_P1;SDS_P2;PMS_P1;PMS_P2;Temp;Humidity;BMP_temperature;BMP_pressure;BME280_temperature;BME280_humidity;BME280_pressure;Samples;Min_cycle;Max_cycle;Signal;HPM_P1;HPM_P2
2021/01/23 00:00:29;;;;;;;1.90;0.80;;;5.00;99.90;;;;;;5011999;28;20037;-75
2021/01/23 00:02:54;;;;;;;3.95;0.70;;;5.00;99.90;;;;;;5013733;28;20038;-75
2021/01/23 00:05:20;;;;;;;2.47;0.88;;;5.00;99.90;;;;;;5012407;28;20120;-75
2021/01/23 00:07:46;;;;;;;1.27;0.60;;;4.90;99.90;;;;;;5012505;28;20053;-75
2021/01/23 00:10:12;;;;;;;3.90;0.60;;;4.90;99.90;;;;;;5012419;28;20077;-75
2021/01/23 00:12:38;;;;;;;5.72;1.15;;;4.90;99.90;;;;;;5012536;28;20046;-75
2021/01/23 00:15:05;;;;;;;0.77;0.50;;;5.00;99.90;;;;;;5012446;28;20053;-75
2021/01/23 00:17:31;;;;;;;0.65;0.55;;;5.00;99.90;;;;;;5012819;28;20042;-75
2021/01/23 00:19:57;;;;;;;1.25;0.60;;;4.90;99.90;;;;;;5012481;28;20396;-75
2021/01/23 00:22:23;;;;;;;0.70;0.50;;;4.90;99.90;;;;;;5012667;28;20053;-75
2021/01/23 00:24:49;;;;;;;1.58;0.40;;;4.80;99.90;;;;;;5012571;28;20041;-75
2021/01/23 00:27:14;;;;;;;0.63;0.55;;;4.80;99.90;;;;;;5012316;28;20046;-75
2021/01/23 00:29:40;;;;;;;0.68;0.30;;;4.80;99.90;;;;;;5012289;28;20128;-75
2021/01/23 00:32:06;;;;;;;0.30;0.30;;;4.80;99.90;;;;;;5030118;28;20087;-75
2021/01/23 00:34:32;;;;;;;0.45;0.45;;;4.80;99.90;;;;;;5032282;28;20045;-75
2021/01/23 00:36:58;;;;;;;1.38;0.40;;;4.80;99.90;;;;;;5032277;28;20029;-75
2021/01/23 00:39:23;;;;;;;1.55;0.55;;;4.70;99.90;;;;;;5032412;28;20128;-75
2021/01/23 00:41:49;;;;;;;0.30;0.20;;;4.80;99.90;;;;;;5031947;28;20492;-75
2021/01/23 00:44:15;;;;;;;0.40;0.35;;;4.90;99.90;;;;;;5031233;28;20069;-75
2021/01/23 00:46:41;;;;;;;0.40;0.40;;;4.90;99.90;;;;;;5031775;28;20099;-75
2021/01/23 00:49:07;;;;;;;0.20;0.20;;;5.00;99.90;;;;;;5031810;28;20049;-75
2021/01/23 00:51:33;;;;;;;0.50;0.35;;;5.00;99.90;;;;;;5031962;28;20120;-75
2021/01/23 00:53:58;;;;;;;1.95;0.38;;;4.90;99.90;;;;;;5032047;28;20041;-75
2021/01/23 00:56:24;;;;;;;0.70;0.30;;;4.90;99.90;;;;;;5032095;28;20037;-75
2021/01/23 00:58:50;;;;;;;0.35;0.35;;;4.90;99.90;;;;;;5017823;28;20124;-75
2021/01/23 01:01:16;;;;;;;0.30;0.30;;;4.90;99.90;;;;;;5012350;28;20048;-75
2021/01/23 01:03:42;;;;;;;0.43;0.25;;;4.80;99.90;;;;;;5012237;28;20046;-75
2021/01/23 01:06:08;;;;;;;0.40;0.30;;;4.90;99.90;;;;;;5011723;28;20096;-76
2021/01/23 01:08:34;;;;;;;0.63;0.20;;;4.80;99.90;;;;;;5029425;28;20504;-75
2021/01/23 01:11:00;;;;;;;0.40;0.40;;;4.80;99.90;;;;;;5028963;28;20052;-75
2021/01/23 01:13:25;;;;;;;0.43;0.30;;;4.80;99.90;;;;;;5011291;28;20054;-75
2021/01/23 01:15:51;;;;;;;0.38;0.38;;;4.80;99.90;;;;;;5011853;28;20042;-75
2021/01/23 01:18:17;;;;;;;0.30;0.30;;;4.80;99.90;;;;;;5011349;28;20042;-75
2021/01/23 01:20:43;;;;;;;0.47;0.20;;;4.70;99.90;;;;;;5011642;28;20523;-75
2021/01/23 01:23:09;;;;;;;0.95;0.38;;;4.70;99.90;;;;;;5011315;28;20061;-75
2021/01/23 01:25:35;;;;;;;0.85;0.30;;;4.70;99.90;;;;;;5011349;28;20080;-76
2021/01/23 01:28:01;;;;;;;0.30;0.30;;;4.70;99.90;;;;;;5011498;28;20141;-76
2021/01/23 01:30:27;;;;;;;0.95;0.20;;;4.70;99.90;;;;;;5011938;28;20037;-75
2021/01/23 01:32:53;;;;;;;0.40;0.40;;;4.70;99.90;;;;;;5019762;28;20041;-75
2021/01/23 01:35:19;;;;;;;0.30;0.30;;;4.70;99.90;;;;;;5025215;28;20041;-75
2021/01/23 01:37:44;;;;;;;0.40;0.40;;;4.70;99.90;;;;;;5015328;28;20124;-75
2021/01/23 01:40:11;;;;;;;0.20;0.20;;;4.60;99.90;;;;;;5020820;28;20060;-75
2021/01/23 01:42:37;;;;;;;0.20;0.10;;;4.60;99.90;;;;;;5034606;28;20052;-75
2021/01/23 01:45:04;;;;;;;0.35;0.35;;;4.60;99.90;;;;;;5034767;28;20037;-75
2021/01/23 01:47:31;;;;;;;0.20;0.20;;;4.70;99.90;;;;;;5035563;28;20047;-75
2021/01/23 01:49:57;;;;;;;1.17;0.28;;;4.70;99.90;;;;;;5034970;28;20048;-76
2021/01/23 01:52:23;;;;;;;0.32;0.20;;;4.70;99.90;;;;;;5034768;28;20049;-75
2021/01/23 01:54:53;;;;;;;0.95;0.43;;;4.70;99.90;;;;;;5034504;28;20045;-75
2021/01/23 01:57:22;;;;;;;0.20;0.20;;;4.70;99.90;;;;;;5034125;28;20068;-75
2021/01/23 01:59:48;;;;;;;0.73;0.35;;;4.60;99.90;;;;;;5030422;28;20156;-75
2021/01/23 02:02:22;;;;;;;0.40;0.20;;;4.50;99.90;;;;;;5014770;28;20131;-75
2021/01/23 02:05:27;;;;;;;0.30;0.30;;;4.50;99.90;;;;;;5014800;28;20034;-75
2021/01/23 02:08:20;;;;;;;0.40;0.40;;;4.70;99.90;;;;;;5003012;28;20128;-75
2021/01/23 02:11:11;;;;;;;1.25;0.60;;;4.80;99.90;;;;;;5014814;28;20034;-75
2021/01/23 02:13:59;;;;;;;0.80;0.30;;;4.80;99.90;;;;;;5014385;28;20070;-75
2021/01/23 02:16:32;;;;;;;0.10;0.10;;;4.90;99.90;;;;;;5014517;28;20045;-75
2021/01/23 02:19:31;;;;;;;0.90;0.50;;;4.80;99.90;;;;;;5014592;28;20041;-75
2021/01/23 02:22:09;;;;;;;0.98;0.20;;;4.90;99.90;;;;;;5026409;28;20071;-75
2021/01/23 02:24:35;;;;;;;0.75;0.40;;;4.70;99.90;;;;;;5034445;28;20038;-75
2021/01/23 02:27:33;;;;;;;2.20;0.50;;;4.60;99.90;;;;;;5034430;28;20077;-75
2021/01/23 02:30:24;;;;;;;0.47;0.20;;;4.60;99.90;;;;;;5033910;28;20125;-75
2021/01/23 02:32:56;;;;;;;1.10;0.40;;;4.60;99.90;;;;;;5033800;28;20049;-75
2021/01/23 02:35:25;;;;;;;1.10;0.57;;;4.80;99.90;;;;;;5034172;28;20039;-75
2021/01/23 02:37:53;;;;;;;1.27;0.52;;;4.90;99.90;;;;;;5033970;28;20121;-75
2021/01/23 02:40:20;;;;;;;0.38;0.38;;;4.90;99.90;;;;;;5033706;28;20037;-75
2021/01/23 02:42:49;;;;;;;1.10;0.43;;;4.80;99.90;;;;;;5031761;28;20068;-75
2021/01/23 02:45:16;;;;;;;2.00;0.50;;;4.80;99.90;;;;;;5013368;28;20042;-75
2021/01/23 02:47:41;;;;;;;0.52;0.25;;;4.90;99.90;;;;;;5013921;28;20042;-75
2021/01/23 02:50:09;;;;;;;1.25;0.57;;;4.80;99.90;;;;;;5013648;28;20048;-75
2021/01/23 02:52:57;;;;;;;2.15;0.77;;;4.80;99.90;;;;;;5015020;28;20041;-75
2021/01/23 02:55:28;;;;;;;2.90;1.20;;;4.90;99.90;;;;;;5013596;28;20048;-75
2021/01/23 02:57:56;;;;;;;3.38;1.90;;;4.90;99.90;;;;;;5013924;28;20080;-75
2021/01/23 03:00:23;;;;;;;2.33;1.63;;;5.00;99.90;;;;;;5013691;28;20092;-75
2021/01/23 03:02:55;;;;;;;2.10;1.80;;;4.90;99.90;;;;;;5024311;28;20044;-75
2021/01/23 03:05:41;;;;;;;4.85;2.05;;;4.90;99.90;;;;;;5033225;28;20045;-75
2021/01/23 03:08:07;;;;;;;4.78;1.70;;;4.90;99.90;;;;;;5032573;28;20120;-75
2021/01/23 03:10:37;;;;;;;1.88;1.50;;;4.90;99.90;;;;;;5033414;28;20069;-75
2021/01/23 03:13:05;;;;;;;4.30;1.60;;;4.90;99.90;;;;;;5033675;28;20054;-75
2021/01/23 03:15:31;;;;;;;2.25;1.30;;;4.90;99.90;;;;;;5033916;28;20088;-75
2021/01/23 03:17:57;;;;;;;2.20;0.90;;;4.90;99.90;;;;;;5033273;28;20578;-75
2021/01/23 03:20:25;;;;;;;3.60;1.10;;;5.00;99.90;;;;;;5015196;28;20042;-75
2021/01/23 03:22:52;;;;;;;2.75;1.65;;;4.80;99.90;;;;;;5013350;28;20496;-75
2021/01/23 03:25:18;;;;;;;2.97;1.98;;;4.80;99.90;;;;;;5013634;28;20077;-75
2021/01/23 03:27:43;;;;;;;1.35;0.68;;;4.80;99.90;;;;;;5022844;28;20070;-75
2021/01/23 03:30:10;;;;;;;1.17;1.02;;;4.90;99.90;;;;;;5032998;28;20041;-75
2021/01/23 03:32:36;;;;;;;2.28;0.82;;;4.90;99.90;;;;;;5033670;28;20053;-75
2021/01/23 03:35:06;;;;;;;1.75;0.60;;;4.90;99.90;;;;;;5032616;28;20492;-75
2021/01/23 03:37:33;;;;;;;2.45;0.90;;;4.80;99.90;;;;;;5032831;28;20333;-75
2021/01/23 03:40:00;;;;;;;1.00;0.63;;;4.80;99.90;;;;;;5030680;28;20041;-75
2021/01/23 03:42:26;;;;;;;1.15;1.05;;;4.80;99.90;;;;;;5032769;28;20045;-75
2021/01/23 03:44:52;;;;;;;0.68;0.60;;;4.80;99.90;;;;;;5032744;28;20447;-75
2021/01/23 03:47:17;;;;;;;0.65;0.65;;;4.80;99.90;;;;;;5027242;28;20088;-75
2021/01/23 03:49:43;;;;;;;0.95;0.60;;;4.80;99.90;;;;;;5012770;28;20066;-75
2021/01/23 03:52:09;;;;;;;2.50;0.80;;;4.80;99.90;;;;;;5012751;28;20045;-75
2021/01/23 03:54:35;;;;;;;0.93;0.80;;;4.70;99.90;;;;;;5018650;28;20041;-75
2021/01/23 03:57:00;;;;;;;0.50;0.45;;;4.60;99.90;;;;;;5031595;28;20052;-75
2021/01/23 03:59:26;;;;;;;0.20;0.20;;;4.50;99.90;;;;;;5032554;28;20033;-75
2021/01/23 04:01:52;;;;;;;1.58;0.80;;;4.60;99.90;;;;;;5032355;28;20104;-75
2021/01/23 04:04:18;;;;;;;0.95;0.85;;;4.50;99.90;;;;;;5031916;28;20041;-75
2021/01/23 04:06:43;;;;;;;0.73;0.60;;;4.50;99.90;;;;;;5032164;28;20045;-75
2021/01/23 04:09:09;;;;;;;0.82;0.82;;;4.50;99.90;;;;;;5030802;28;20030;-75
2021/01/23 04:11:35;;;;;;;0.70;0.50;;;4.40;99.90;;;;;;5031855;28;20073;-75
2021/01/23 04:14:01;;;;;;;0.70;0.70;;;4.40;99.90;;;;;;5032052;28;20131;-75
2021/01/23 04:16:27;;;;;;;0.60;0.30;;;4.30;99.90;;;;;;5032458;28;20064;-75
2021/01/23 04:18:53;;;;;;;0.57;0.40;;;4.40;99.90;;;;;;5032293;28;20124;-75
2021/01/23 04:21:18;;;;;;;1.98;0.68;;;4.40;99.90;;;;;;5032397;28;20029;-75
2021/01/23 04:23:44;;;;;;;0.90;0.70;;;4.40;99.90;;;;;;5024827;28;20045;-75
2021/01/23 04:26:11;;;;;;;0.43;0.43;;;4.40;99.90;;;;;;5012658;28;20121;-75
2021/01/23 04:28:37;;;;;;;1.63;0.55;;;4.50;99.90;;;;;;5012966;28;20100;-75
2021/01/23 04:31:03;;;;;;;0.57;0.57;;;4.40;99.90;;;;;;5016728;28;20052;-75
2021/01/23 04:33:30;;;;;;;0.82;0.60;;;4.40;99.90;;;;;;5032034;28;20092;-75
2021/01/23 04:35:56;;;;;;;4.65;0.73;;;4.30;99.90;;;;;;5032027;28;20121;-75
2021/01/23 04:38:21;;;;;;;1.50;0.50;;;4.50;99.90;;;;;;5032004;28;20456;-75
2021/01/23 04:40:47;;;;;;;1.15;0.40;;;4.50;99.90;;;;;;5031804;28;20116;-75
2021/01/23 04:43:13;;;;;;;2.03;0.60;;;4.50;99.90;;;;;;5031835;28;20048;-75
2021/01/23 04:45:39;;;;;;;1.00;0.50;;;4.50;99.90;;;;;;5032396;28;20037;-75
2021/01/23 04:48:06;;;;;;;3.50;0.40;;;4.50;99.90;;;;;;5031610;28;20041;-75
2021/01/23 04:50:32;;;;;;;2.00;0.50;;;4.50;99.90;;;;;;5030115;28;20363;-75
2021/01/23 04:52:58;;;;;;;1.30;1.10;;;4.40;99.90;;;;;;5031289;28;20049;-75
2021/01/23 04:55:23;;;;;;;1.50;1.40;;;4.50;99.90;;;;;;5031813;28;20049;-75
2021/01/23 04:57:49;;;;;;;0.90;0.90;;;4.50;99.90;;;;;;5031786;28;20037;-75
2021/01/23 05:00:15;;;;;;;4.78;3.20;;;4.50;99.90;;;;;;5031522;28;20056;-75
2021/01/23 05:02:41;;;;;;;6.30;4.10;;;4.50;99.90;;;;;;5032006;28;20574;-75
2021/01/23 05:05:08;;;;;;;8.52;4.57;;;4.40;99.90;;;;;;5031822;28;20041;-75
2021/01/23 05:07:37;;;;;;;7.88;4.68;;;4.60;99.90;;;;;;5031314;28;20090;-75
2021/01/23 05:10:24;;;;;;;4.47;3.53;;;4.50;99.90;;;;;;5022726;28;20431;-75
2021/01/23 05:12:52;;;;;;;6.40;3.92;;;4.40;99.90;;;;;;5011375;28;20046;-75
2021/01/23 05:15:25;;;;;;;5.55;1.60;;;4.30;99.90;;;;;;5011786;28;20048;-75
2021/01/23 05:17:59;;;;;;;1.63;1.02;;;4.60;99.90;;;;;;5011417;28;20508;-76
2021/01/23 05:20:42;;;;;;;0.57;0.40;;;4.50;99.90;;;;;;5014120;28;20102;-75
2021/01/23 05:23:14;;;;;;;1.95;0.57;;;4.60;99.90;;;;;;5031227;28;20045;-75
2021/01/23 05:25:42;;;;;;;1.50;0.80;;;4.50;99.90;;;;;;5019598;28;20052;-75
2021/01/23 05:28:10;;;;;;;0.90;0.73;;;4.60;99.90;;;;;;5011439;28;20045;-75
2021/01/23 05:30:50;;;;;;;0.82;0.65;;;4.50;99.90;;;;;;5012383;28;20041;-75
2021/01/23 05:33:21;;;;;;;3.38;0.50;;;4.40;99.90;;;;;;5012354;28;20087;-75
2021/01/23 05:36:06;;;;;;;2.25;0.68;;;4.40;99.90;;;;;;5013176;28;20081;-75
2021/01/23 05:38:40;;;;;;;1.42;0.60;;;4.60;99.90;;;;;;5029686;28;20084;-74
2021/01/23 05:41:10;;;;;;;1.23;0.50;;;4.70;99.90;;;;;;5031425;28;20041;-74
2021/01/23 05:43:52;;;;;;;3.03;0.40;;;4.60;99.90;;;;;;5029709;28;20069;-75
2021/01/23 05:46:27;;;;;;;1.70;0.50;;;4.50;99.90;;;;;;5015490;28;20044;-75
2021/01/23 05:48:54;;;;;;;1.35;0.50;;;4.50;99.90;;;;;;5027802;28;20585;-75
2021/01/23 05:51:20;;;;;;;2.15;0.60;;;4.60;99.90;;;;;;5011016;28;20092;-75
2021/01/23 05:53:47;;;;;;;1.00;0.40;;;4.80;99.90;;;;;;5027572;28;20132;-75
2021/01/23 05:56:14;;;;;;;1.52;0.50;;;4.80;99.90;;;;;;5017739;28;20535;-74
2021/01/23 05:58:43;;;;;;;4.60;2.58;;;5.00;99.90;;;;;;5020600;28;20116;-74
2021/01/23 06:01:12;;;;;;;2.00;0.80;;;5.00;99.90;;;;;;5025176;28;20049;-75
2021/01/23 06:03:43;;;;;;;3.60;0.80;;;5.10;99.90;;;;;;5023694;28;20049;-75
2021/01/23 06:06:09;;;;;;;2.47;0.77;;;5.10;99.90;;;;;;5023677;28;20393;-74
2021/01/23 06:08:40;;;;;;;0.77;0.60;;;5.10;99.90;;;;;;5018877;28;20409;-75
2021/01/23 06:11:18;;;;;;;3.20;1.35;;;5.40;99.90;;;;;;5014132;28;20547;-75
2021/01/23 06:13:48;;;;;;;1.85;0.50;;;5.30;99.90;;;;;;5020847;28;20390;-74
2021/01/23 06:16:35;;;;;;;2.58;0.73;;;5.40;99.90;;;;;;5011590;28;20054;-75
2021/01/23 06:19:04;;;;;;;2.65;0.80;;;5.40;99.90;;;;;;5011150;28;20046;-75
2021/01/23 06:21:45;;;;;;;2.25;1.25;;;5.40;99.90;;;;;;5014598;28;20042;-74
2021/01/23 06:24:15;;;;;;;4.28;1.40;;;5.40;99.90;;;;;;5014514;28;20045;-74
2021/01/23 06:26:53;;;;;;;2.07;1.20;;;5.40;99.90;;;;;;5014203;28;20060;-75
2021/01/23 06:29:38;;;;;;;1.05;0.73;;;5.40;99.90;;;;;;5013330;28;20045;-75
2021/01/23 06:32:13;;;;;;;2.28;0.77;;;5.30;99.90;;;;;;5013997;28;20149;-74
2021/01/23 06:34:44;;;;;;;2.83;0.98;;;5.30;99.90;;;;;;5014045;28;20037;-75
2021/01/23 06:37:33;;;;;;;1.60;0.95;;;5.00;99.90;;;;;;5014220;28;20045;-75
2021/01/23 06:40:02;;;;;;;2.97;0.60;;;4.70;99.90;;;;;;5014285;28;20036;-75
2021/01/23 06:42:28;;;;;;;2.00;1.00;;;4.70;99.90;;;;;;5013864;28;20049;-74
2021/01/23 06:44:54;;;;;;;4.55;1.42;;;4.60;99.90;;;;;;5014303;28;20034;-75
2021/01/23 06:47:19;;;;;;;4.07;1.40;;;4.60;99.90;;;;;;5014085;28;20053;-75
2021/01/23 06:49:45;;;;;;;2.00;0.80;;;4.50;99.90;;;;;;5014640;28;20385;-75
2021/01/23 06:52:11;;;;;;;3.08;1.13;;;4.50;99.90;;;;;;5013956;28;20051;-75
2021/01/23 06:54:38;;;;;;;4.03;1.20;;;4.50;99.90;;;;;;5014052;28;20034;-74
2021/01/23 06:57:06;;;;;;;3.30;1.30;;;4.50;99.90;;;;;;5013637;28;20095;-74
2021/01/23 06:59:34;;;;;;;2.85;1.17;;;4.50;99.90;;;;;;5014103;28;20045;-74
2021/01/23 07:02:08;;;;;;;1.27;0.90;;;4.60;99.90;;;;;;5015928;28;20046;-75
2021/01/23 07:04:36;;;;;;;3.47;1.70;;;4.60;99.90;;;;;;5033175;28;20029;-75
2021/01/23 07:07:08;;;;;;;2.17;0.90;;;4.70;99.90;;;;;;5013849;28;20042;-75
2021/01/23 07:09:47;;;;;;;2.47;0.95;;;4.80;99.90;;;;;;5033262;28;20033;-74
2021/01/23 07:12:34;;;;;;;2.75;1.60;;;5.00;99.90;;;;;;5033214;28;20057;-74
2021/01/23 07:15:00;;;;;;;6.95;4.07;;;5.40;99.90;;;;;;5037365;28;20052;-75
2021/01/23 07:17:26;;;;;;;30.20;14.63;;;5.30;99.90;;;;;;5053270;28;20044;-75
2021/01/23 07:19:53;;;;;;;10.52;5.18;;;5.20;99.90;;;;;;5053505;28;20033;-75
2021/01/23 07:22:19;;;;;;;3.15;1.63;;;5.30;99.90;;;;;;5052275;28;20541;-75
2021/01/23 07:24:45;;;;;;;2.50;1.20;;;5.40;99.90;;;;;;5053385;28;20044;-75
2021/01/23 07:27:11;;;;;;;1.77;1.05;;;5.50;99.90;;;;;;5053057;28;20408;-75
2021/01/23 07:29:37;;;;;;;3.65;0.80;;;5.60;99.90;;;;;;5053193;28;20357;-75
2021/01/23 07:32:03;;;;;;;1.42;0.70;;;5.90;99.90;;;;;;5053317;28;20068;-75
2021/01/23 07:34:28;;;;;;;1.45;1.35;;;6.00;99.90;;;;;;5052828;28;20032;-75
2021/01/23 07:36:54;;;;;;;2.22;1.40;;;6.10;99.90;;;;;;5053823;28;20051;-74
2021/01/23 07:39:20;;;;;;;2.60;1.42;;;6.30;99.90;;;;;;5034817;28;20041;-74
2021/01/23 07:41:55;;;;;;;0.60;0.57;;;6.50;99.90;;;;;;5033338;28;20033;-75
2021/01/23 07:44:24;;;;;;;2.65;0.50;;;6.70;99.90;;;;;;5033948;28;20048;-75
2021/01/23 07:46:50;;;;;;;2.58;0.50;;;6.80;99.90;;;;;;5034100;28;20129;-75
2021/01/23 07:49:26;;;;;;;2.05;0.60;;;7.00;99.90;;;;;;5033151;28;20068;-75
2021/01/23 07:52:07;;;;;;;2.45;1.27;;;6.80;99.90;;;;;;5034143;28;20041;-75
2021/01/23 07:54:34;;;;;;;1.88;0.50;;;6.70;99.90;;;;;;5034265;28;20456;-75
2021/01/23 07:57:00;;;;;;;1.77;0.43;;;6.70;99.90;;;;;;5033161;28;20134;-75
2021/01/23 07:59:45;;;;;;;3.35;0.80;;;6.60;99.90;;;;;;5032663;28;20025;-75
2021/01/23 08:02:11;;;;;;;2.17;0.90;;;6.50;99.90;;;;;;5033228;28;20480;-75
2021/01/23 08:04:39;;;;;;;1.77;0.80;;;6.60;99.90;;;;;;5033253;28;20037;-75
2021/01/23 08:07:21;;;;;;;5.35;1.60;;;6.70;99.90;;;;;;5033178;28;20037;-75
2021/01/23 08:10:06;;;;;;;1.30;0.93;;;6.80;99.90;;;;;;5032922;28;20061;-75
2021/01/23 08:12:32;;;;;;;2.05;1.00;;;7.00;99.90;;;;;;5032416;28;20053;-75
2021/01/23 08:14:58;;;;;;;1.58;0.90;;;7.20;99.90;;;;;;5031592;28;20093;-75
2021/01/23 08:17:45;;;;;;;5.93;2.40;;;7.20;99.90;;;;;;5032173;28;20041;-75
2021/01/23 08:20:16;;;;;;;1.83;0.82;;;7.30;99.90;;;;;;5031910;28;20037;-75
2021/01/23 08:23:05;;;;;;;1.50;0.93;;;7.30;99.90;;;;;;5031445;28;20053;-75
2021/01/23 08:25:33;;;;;;;2.45;0.70;;;7.50;99.90;;;;;;5030049;28;20041;-75
2021/01/23 08:27:59;;;;;;;1.15;0.60;;;7.60;99.90;;;;;;5030515;28;20037;-75
2021/01/23 08:30:27;;;;;;;3.97;0.88;;;7.70;99.90;;;;;;5031511;28;20053;-75
2021/01/23 08:32:53;;;;;;;2.92;0.80;;;7.80;99.90;;;;;;5032801;28;20129;-74
2021/01/23 08:35:20;;;;;;;1.42;0.80;;;8.00;99.90;;;;;;5032222;28;20045;-74
2021/01/23 08:37:46;;;;;;;0.98;0.77;;;8.10;99.90;;;;;;5030809;28;20102;-76
2021/01/23 08:40:16;;;;;;;1.65;0.55;;;8.30;99.90;;;;;;5029972;28;20048;-75
2021/01/23 08:42:42;;;;;;;2.70;0.90;;;8.10;99.90;;;;;;5028134;28;20519;-75
2021/01/23 08:45:08;;;;;;;1.63;1.27;;;7.90;99.90;;;;;;5028809;28;20045;-75
2021/01/23 08:47:34;;;;;;;0.45;0.45;;;7.70;99.90;;;;;;5028599;28;20041;-75
2021/01/23 08:50:00;;;;;;;3.22;0.98;;;7.70;99.90;;;;;;5028746;28;20373;-75
2021/01/23 08:52:26;;;;;;;0.82;0.60;;;7.60;99.90;;;;;;5028791;28;20053;-76
2021/01/23 08:54:52;;;;;;;0.98;0.50;;;7.70;99.90;;;;;;5029145;28;20041;-75
2021/01/23 08:57:17;;;;;;;1.92;1.27;;;7.70;99.90;;;;;;5029633;28;20041;-75
2021/01/23 08:59:43;;;;;;;1.48;1.02;;;7.60;99.90;;;;;;5029939;28;20072;-75
2021/01/23 09:02:10;;;;;;;3.10;1.20;;;7.50;99.90;;;;;;5029981;28;20527;-75
2021/01/23 09:04:37;;;;;;;1.48;0.90;;;7.50;99.90;;;;;;5029573;28;20045;-76
2021/01/23 09:07:03;;;;;;;1.08;0.80;;;7.50;99.90;;;;;;5026597;28;20049;-76
2021/01/23 09:09:30;;;;;;;2.80;1.00;;;7.40;99.90;;;;;;5029710;28;20048;-74
2021/01/23 09:11:56;;;;;;;2.00;1.27;;;7.40;99.90;;;;;;5029893;28;20053;-75
2021/01/23 09:14:21;;;;;;;3.47;2.10;;;7.50;99.90;;;;;;5029855;28;20052;-75
2021/01/23 09:16:47;;;;;;;1.10;0.60;;;7.50;99.90;;;;;;5028703;28;20491;-74
2021/01/23 09:19:13;;;;;;;2.30;0.95;;;7.60;99.90;;;;;;5030971;28;20033;-74
2021/01/23 09:21:39;;;;;;;2.85;1.70;;;7.60;99.90;;;;;;5038524;28;20054;-75
2021/01/23 09:24:09;;;;;;;4.05;2.40;;;7.60;99.90;;;;;;5029861;28;20156;-76
2021/01/23 09:26:35;;;;;;;2.72;1.35;;;7.60;99.90;;;;;;5029684;28;20049;-75
2021/01/23 09:29:02;;;;;;;1.33;0.80;;;7.70;99.90;;;;;;5034014;28;20041;-75
2021/01/23 09:31:28;;;;;;;1.60;0.60;;;7.90;99.90;;;;;;5030872;28;20577;-75
2021/01/23 09:33:53;;;;;;;3.35;1.95;;;8.00;99.90;;;;;;5033807;28;20074;-75
2021/01/23 09:36:20;;;;;;;2.67;1.80;;;8.00;99.90;;;;;;5034918;28;20049;-75
2021/01/23 09:38:46;;;;;;;6.15;3.28;;;8.20;99.90;;;;;;5030352;28;20037;-75
2021/01/23 09:41:12;;;;;;;3.10;1.50;;;8.20;99.90;;;;;;5030897;28;20083;-75
2021/01/23 09:43:38;;;;;;;8.43;4.45;;;8.40;99.90;;;;;;5030008;28;20068;-75
2021/01/23 09:46:04;;;;;;;3.22;1.60;;;8.40;99.90;;;;;;5032019;28;20037;-74
2021/01/23 09:48:30;;;;;;;1.63;0.98;;;8.50;99.90;;;;;;5031822;28;20037;-75
2021/01/23 09:50:56;;;;;;;3.45;1.98;;;8.60;99.90;;;;;;5032558;28;20048;-74
2021/01/23 09:53:21;;;;;;;6.07;3.17;;;8.80;99.90;;;;;;5028393;28;20446;-74
2021/01/23 09:55:47;;;;;;;14.82;7.28;;;8.70;99.90;;;;;;5032012;28;20076;-74
2021/01/23 09:58:13;;;;;;;16.02;6.78;;;8.90;99.90;;;;;;5033443;28;20373;-74
2021/01/23 10:00:39;;;;;;;31.13;14.50;;;8.90;99.90;;;;;;5033489;28;20056;-74
2021/01/23 10:03:05;;;;;;;16.70;8.88;;;9.10;99.90;;;;;;5033312;28;20064;-74
2021/01/23 10:05:31;;;;;;;17.08;7.95;;;9.20;99.90;;;;;;5033142;28;20626;-74
2021/01/23 10:07:57;;;;;;;7.13;4.22;;;9.00;99.90;;;;;;5033866;28;20402;-74
2021/01/23 10:10:24;;;;;;;1.48;1.20;;;8.90;99.90;;;;;;5033014;28;20038;-74
2021/01/23 10:12:51;;;;;;;1.00;0.90;;;8.60;99.90;;;;;;5032791;28;20049;-74
2021/01/23 10:15:17;;;;;;;1.67;0.70;;;8.30;99.90;;;;;;5032825;28;20136;-74
2021/01/23 10:17:43;;;;;;;2.85;1.17;;;8.10;99.90;;;;;;5032082;28;20516;-74
2021/01/23 10:20:10;;;;;;;2.10;1.20;;;8.10;99.90;;;;;;5032576;28;20056;-74
2021/01/23 10:22:35;;;;;;;2.75;1.45;;;8.10;99.90;;;;;;5032205;28;20152;-74
2021/01/23 10:25:02;;;;;;;2.10;1.30;;;8.20;99.90;;;;;;5029363;28;20108;-75
2021/01/23 10:27:28;;;;;;;1.75;1.60;;;8.40;99.90;;;;;;5029563;28;20045;-74
2021/01/23 10:29:53;;;;;;;1.40;1.05;;;8.60;99.90;;;;;;5032341;28;20045;-74
2021/01/23 10:32:19;;;;;;;3.90;2.05;;;8.90;99.90;;;;;;5030424;28;20137;-74
2021/01/23 10:34:45;;;;;;;1.50;1.30;;;9.30;99.90;;;;;;5028121;28;20037;-74
2021/01/23 10:37:11;;;;;;;2.97;1.50;;;9.20;99.90;;;;;;5031877;28;20411;-74
2021/01/23 10:39:39;;;;;;;2.72;2.00;;;9.50;99.90;;;;;;5031412;28;20520;-74
2021/01/23 10:42:06;;;;;;;2.63;1.25;;;9.50;99.90;;;;;;5029388;28;20045;-75
2021/01/23 10:44:38;;;;;;;3.15;1.20;;;9.70;99.90;;;;;;5029558;28;20111;-74
2021/01/23 10:47:04;;;;;;;2.85;1.10;;;9.40;99.90;;;;;;5029046;28;20065;-75
2021/01/23 10:49:29;;;;;;;1.38;0.75;;;9.10;99.90;;;;;;5030845;28;20044;-75
2021/01/23 10:51:55;;;;;;;2.08;1.05;;;8.80;99.90;;;;;;5031414;28;20037;-74
2021/01/23 10:54:21;;;;;;;5.35;2.78;;;8.80;99.90;;;;;;5031602;28;20063;-74
2021/01/23 10:56:47;;;;;;;1.58;1.00;;;8.70;99.90;;;;;;5031598;28;20049;-74
2021/01/23 10:59:12;;;;;;;4.10;1.55;;;8.70;99.90;;;;;;5025833;28;20040;-74
2021/01/23 11:01:38;;;;;;;11.13;5.50;;;8.60;99.90;;;;;;5031464;28;20041;-74
2021/01/23 11:04:04;;;;;;;2.25;1.10;;;8.60;99.90;;;;;;5031125;28;20049;-75
2021/01/23 11:06:30;;;;;;;2.63;1.50;;;8.50;99.90;;;;;;5017776;28;20045;-74
2021/01/23 11:08:56;;;;;;;2.13;1.10;;;8.60;99.90;;;;;;5031299;28;20045;-74
2021/01/23 11:11:23;;;;;;;2.70;1.02;;;8.50;99.90;;;;;;5030530;28;20049;-75
2021/01/23 11:13:48;;;;;;;3.30;2.40;;;8.50;99.90;;;;;;5031351;28;20053;-74
2021/01/23 11:16:14;;;;;;;1.90;1.17;;;8.50;99.90;;;;;;5029177;28;20280;-74
2021/01/23 11:18:40;;;;;;;2.67;1.20;;;8.50;99.90;;;;;;5030074;28;20088;-75
2021/01/23 11:21:06;;;;;;;1.33;1.20;;;8.40;99.90;;;;;;5030451;28;20120;-74
2021/01/23 11:23:32;;;;;;;3.65;2.40;;;8.50;99.90;;;;;;5030782;28;20150;-74
2021/01/23 11:25:58;;;;;;;2.00;1.27;;;8.70;99.90;;;;;;5028795;28;20073;-74
2021/01/23 11:28:24;;;;;;;3.28;2.42;;;8.70;99.90;;;;;;5028132;28;20091;-74
2021/01/23 11:30:53;;;;;;;3.95;1.60;;;8.80;99.90;;;;;;5030198;28;20050;-75
2021/01/23 11:33:20;;;;;;;5.03;3.03;;;8.90;99.90;;;;;;5030901;28;20049;-74
2021/01/23 11:35:46;;;;;;;1.73;1.00;;;9.00;99.90;;;;;;5031230;28;20041;-74
2021/01/23 11:38:11;;;;;;;3.83;1.38;;;8.90;99.90;;;;;;5030399;28;20124;-74
2021/01/23 11:40:37;;;;;;;1.52;0.98;;;9.00;99.90;;;;;;5020131;28;20041;-74
2021/01/23 11:43:03;;;;;;;3.72;1.65;;;8.80;99.90;;;;;;5030560;28;20037;-74
2021/01/23 11:45:29;;;;;;;2.60;1.35;;;8.80;99.90;;;;;;5030751;28;20037;-74
2021/01/23 11:47:55;;;;;;;3.20;1.90;;;8.80;99.90;;;;;;5033376;28;20041;-74
2021/01/23 11:50:21;;;;;;;3.08;1.80;;;8.60;99.90;;;;;;5033020;28;20075;-75
2021/01/23 11:52:50;;;;;;;5.80;1.92;;;8.50;99.90;;;;;;5033011;28;20095;-75
2021/01/23 11:55:16;;;;;;;2.38;1.75;;;8.60;99.90;;;;;;5033489;28;20140;-74
2021/01/23 11:57:42;;;;;;;4.70;2.28;;;8.50;99.90;;;;;;5033610;28;20560;-75
2021/01/23 12:00:09;;;;;;;4.40;2.55;;;8.80;99.90;;;;;;5034854;28;20037;-74
2021/01/23 12:02:35;;;;;;;2.05;1.50;;;8.90;99.90;;;;;;5034883;28;20087;-75
2021/01/23 12:05:01;;;;;;;1.40;1.30;;;9.20;99.90;;;;;;5034973;28;20132;-74
2021/01/23 12:07:26;;;;;;;2.95;1.98;;;9.10;99.90;;;;;;5034062;28;20590;-74
2021/01/23 12:09:53;;;;;;;2.17;1.13;;;9.10;99.90;;;;;;5031092;28;20209;-74
2021/01/23 12:12:19;;;;;;;2.92;1.63;;;9.10;99.90;;;;;;5030284;28;20124;-74
2021/01/23 12:14:45;;;;;;;4.43;1.67;;;9.20;99.90;;;;;;5031106;28;20129;-74
2021/01/23 12:17:10;;;;;;;3.78;1.50;;;9.10;99.90;;;;;;5031619;28;20037;-74
2021/01/23 12:19:37;;;;;;;2.65;1.10;;;9.00;99.90;;;;;;5032932;28;20496;-74
2021/01/23 12:22:04;;;;;;;1.95;1.00;;;8.80;99.90;;;;;;5033095;28;20112;-74
2021/01/23 12:24:32;;;;;;;4.97;1.10;;;8.80;99.90;;;;;;5034742;28;20075;-74
2021/01/23 12:27:01;;;;;;;1.00;0.70;;;8.70;99.90;;;;;;5034478;28;20033;-74
2021/01/23 12:29:28;;;;;;;1.98;1.02;;;8.80;99.90;;;;;;5035092;28;20038;-74
2021/01/23 12:31:54;;;;;;;1.98;1.20;;;8.60;99.90;;;;;;5034877;28;20040;-74
2021/01/23 12:34:19;;;;;;;1.77;0.70;;;8.60;99.90;;;;;;5033699;28;20045;-74
2021/01/23 12:36:45;;;;;;;2.03;1.00;;;8.70;99.90;;;;;;5034410;28;20463;-74
2021/01/23 12:39:11;;;;;;;1.77;1.00;;;8.70;99.90;;;;;;5032425;28;20090;-74
2021/01/23 12:41:37;;;;;;;1.15;0.80;;;9.00;99.90;;;;;;5032609;28;20037;-75
2021/01/23 12:44:04;;;;;;;0.98;0.60;;;9.20;99.90;;;;;;5039218;28;20048;-75
2021/01/23 12:46:29;;;;;;;2.22;0.98;;;9.40;99.90;;;;;;5051641;28;20123;-75
2021/01/23 12:48:56;;;;;;;2.22;1.38;;;9.40;99.90;;;;;;5035979;28;20145;-75
2021/01/23 12:51:21;;;;;;;2.47;1.00;;;9.50;99.90;;;;;;5030334;28;20033;-74
2021/01/23 12:53:47;;;;;;;1.15;1.05;;;9.50;99.90;;;;;;5030146;28;20042;-74
2021/01/23 12:56:13;;;;;;;3.00;1.00;;;9.80;99.90;;;;;;5031197;28;20072;-74
2021/01/23 12:58:40;;;;;;;1.33;0.77;;;9.50;99.90;;;;;;5031793;28;20045;-74
2021/01/23 13:01:06;;;;;;;3.58;1.00;;;9.50;99.90;;;;;;5046656;28;20468;-75
2021/01/23 13:03:32;;;;;;;0.77;0.73;;;9.30;99.90;;;;;;5031830;28;20124;-75